createdAt,value
2018-11-01T05:00:28.719Z,978.40
2018-11-01T05:01:28.683Z,978.32
2018-11-01T05:02:28.675Z,978.27
2018-11-01T05:03:28.684Z,978.21
2018-11-01T05:04:28.722Z,978.18
2018-11-01T05:05:28.649Z,978.18
2018-11-01T05:06:28.642Z,978.18
2018-11-01T05:07:28.617Z,978.15
2018-11-01T05:08:28.623Z,978.17
2018-11-01T05:09:28.666Z,978.16
2018-11-01T05:10:28.596Z,978.21
2018-11-01T05:11:28.569Z,978.20
2018-11-01T05:12:28.562Z,978.22
2018-11-01T05:13:28.546Z,978.21
2018-11-01T05:14:28.554Z,978.22
2018-11-01T05:15:28.613Z,978.24
2018-11-01T05:16:28.532Z,978.25
2018-11-01T05:17:28.499Z,978.22
2018-11-01T05:18:28.488Z,978.18
2018-11-01T05:19:28.487Z,978.16
2018-11-01T05:20:28.466Z,978.10
2018-11-01T05:21:28.456Z,978.08
2018-11-01T05:22:28.443Z,978.04
2018-11-01T05:23:28.436Z,978.09
2018-11-01T05:24:28.452Z,978.14
2018-11-01T05:25:28.408Z,978.07
2018-11-01T05:26:28.404Z,978.11
2018-11-01T05:27:28.386Z,978.11
2018-11-01T05:28:28.374Z,978.13
2018-11-01T05:29:28.410Z,978.11
2018-11-01T05:30:28.352Z,978.19
2018-11-01T05:31:28.340Z,978.21
2018-11-01T05:32:28.373Z,978.21
2018-11-01T05:33:28.317Z,978.17
2018-11-01T05:34:28.340Z,978.20
2018-11-01T05:35:28.328Z,978.18
2018-11-01T05:36:28.297Z,978.21
2018-11-01T05:37:28.272Z,978.26
2018-11-01T05:38:28.280Z,978.25
2018-11-01T05:39:28.273Z,978.24
2018-11-01T05:40:28.241Z,978.23
2018-11-01T05:41:28.228Z,978.29
2018-11-01T05:42:28.217Z,978.28
2018-11-01T05:43:28.243Z,978.32
2018-11-01T05:44:28.216Z,978.32
2018-11-01T05:45:28.177Z,978.35
2018-11-01T05:46:28.185Z,978.38
2018-11-01T05:47:28.170Z,978.37
2018-11-01T05:48:28.142Z,978.38
2018-11-01T05:49:28.247Z,978.33
2018-11-01T05:50:28.148Z,978.36
2018-11-01T05:51:28.124Z,978.38
2018-11-01T05:52:28.096Z,978.37
2018-11-01T05:53:28.085Z,978.46
2018-11-01T05:54:28.078Z,978.48
2018-11-01T05:55:28.077Z,978.46
2018-11-01T05:56:28.047Z,978.39
2018-11-01T05:57:28.043Z,978.40
2018-11-01T05:58:28.024Z,978.39
2018-11-01T05:59:28.013Z,978.41
2018-11-01T06:00:28.025Z,978.44
2018-11-01T06:01:28.015Z,978.43
2018-11-01T06:02:27.987Z,978.44
2018-11-01T06:03:27.971Z,978.45
2018-11-01T06:04:27.960Z,978.44
2018-11-01T06:05:28.019Z,978.38
2018-11-01T06:06:27.937Z,978.37
2018-11-01T06:07:27.956Z,978.38
2018-11-01T06:08:27.983Z,978.40
2018-11-01T06:09:27.895Z,978.36
2018-11-01T06:10:27.919Z,978.37
2018-11-01T06:11:27.878Z,978.33
2018-11-01T06:12:27.951Z,978.34
2018-11-01T06:13:27.857Z,978.32
2018-11-01T06:14:27.842Z,978.25
2018-11-01T06:15:27.882Z,978.21
2018-11-01T06:16:27.876Z,978.12
2018-11-01T06:17:27.825Z,978.08
2018-11-01T06:18:27.815Z,978.05
2018-11-01T06:19:27.828Z,978.03
2018-11-01T06:20:27.803Z,978.05
2018-11-01T06:21:27.777Z,978.04
2018-11-01T06:22:27.755Z,978.02
2018-11-01T06:23:27.799Z,977.99
2018-11-01T06:24:27.744Z,978.00
2018-11-01T06:25:27.750Z,977.98
2018-11-01T06:26:27.746Z,977.95
2018-11-01T06:27:27.694Z,977.95
2018-11-01T06:28:27.686Z,977.93
2018-11-01T06:29:27.675Z,977.98
2018-11-01T06:30:27.682Z,977.92
2018-11-01T06:31:27.684Z,977.93
2018-11-01T06:32:27.670Z,978.01
2018-11-01T06:33:27.660Z,977.98
2018-11-01T06:34:27.614Z,977.96
2018-11-01T06:35:27.639Z,977.93
2018-11-01T06:36:27.635Z,977.93
2018-11-01T06:37:27.583Z,977.86
2018-11-01T06:38:27.588Z,977.90
2018-11-01T06:39:27.562Z,977.83
2018-11-01T06:40:27.557Z,977.84
2018-11-01T06:41:27.538Z,977.81
2018-11-01T06:42:27.554Z,977.74
2018-11-01T06:43:27.528Z,977.74
2018-11-01T06:44:27.545Z,977.72
2018-11-01T06:45:27.515Z,977.78
2018-11-01T06:46:27.493Z,977.78
2018-11-01T06:47:27.469Z,977.80
2018-11-01T06:48:27.453Z,977.80
2018-11-01T06:49:27.443Z,977.80
2018-11-01T06:50:27.483Z,977.78
2018-11-01T06:51:27.440Z,977.78
2018-11-01T06:52:27.451Z,977.78
2018-11-01T06:53:27.429Z,977.81
2018-11-01T06:54:27.401Z,977.89
2018-11-01T06:55:27.402Z,977.86
2018-11-01T06:56:27.382Z,977.84
2018-11-01T06:57:27.393Z,977.88
2018-11-01T06:58:27.566Z,977.87
2018-11-01T06:59:27.475Z,977.90
2018-11-01T07:00:27.349Z,977.87
2018-11-01T07:01:27.362Z,977.83
2018-11-01T07:02:27.299Z,977.88
2018-11-01T07:03:27.327Z,977.93
2018-11-01T07:04:27.343Z,977.90
2018-11-01T07:05:27.340Z,977.94
2018-11-01T07:06:27.250Z,977.91
2018-11-01T07:07:27.269Z,977.87
2018-11-01T07:08:27.225Z,977.82
2018-11-01T07:09:27.238Z,977.84
2018-11-01T07:10:27.215Z,977.76
2018-11-01T07:11:27.286Z,977.73
2018-11-01T07:12:27.184Z,977.68
2018-11-01T07:13:27.187Z,977.64
2018-11-01T07:14:27.176Z,977.63
2018-11-01T07:15:27.193Z,977.62
2018-11-01T07:16:27.280Z,977.63
2018-11-01T07:17:27.410Z,977.57
2018-11-01T07:18:27.112Z,977.61
2018-11-01T07:19:27.120Z,977.54
2018-11-01T07:20:27.117Z,977.54
2018-11-01T07:21:27.078Z,977.55
2018-11-01T07:22:27.070Z,977.48
2018-11-01T07:23:27.069Z,977.45
2018-11-01T07:24:27.072Z,977.41
2018-11-01T07:25:27.287Z,977.37
2018-11-01T07:26:27.039Z,977.35
2018-11-01T07:27:27.033Z,977.43
2018-11-01T07:28:26.998Z,977.38
2018-11-01T07:29:26.983Z,977.40
2018-11-01T07:30:27.099Z,977.46
2018-11-01T07:31:26.966Z,977.42
2018-11-01T07:32:26.971Z,977.41
2018-11-01T07:33:26.964Z,977.37
2018-11-01T07:34:26.945Z,977.37
2018-11-01T07:35:26.938Z,977.36
2018-11-01T07:36:26.926Z,977.37
2018-11-01T07:37:26.912Z,977.34
2018-11-01T07:38:26.948Z,977.27
2018-11-01T07:39:26.864Z,977.27
2018-11-01T07:40:26.911Z,977.26
2018-11-01T07:41:26.860Z,977.19
2018-11-01T07:42:26.851Z,977.24
2018-11-01T07:43:26.830Z,977.22
2018-11-01T07:44:26.831Z,977.15
2018-11-01T07:45:26.880Z,977.18
2018-11-01T07:46:26.793Z,977.15
2018-11-01T07:47:26.827Z,977.10
2018-11-01T07:48:26.783Z,977.08
2018-11-01T07:49:26.784Z,977.07
2018-11-01T07:50:26.779Z,977.08
2018-11-01T07:51:26.752Z,977.08
2018-11-01T07:52:26.746Z,977.05
2018-11-01T07:53:26.705Z,977.03
2018-11-01T07:54:26.697Z,977.03
2018-11-01T07:55:26.686Z,977.02
2018-11-01T07:56:26.715Z,976.95
2018-11-01T07:57:26.679Z,976.95
2018-11-01T07:58:26.811Z,976.96
2018-11-01T07:59:26.641Z,976.93
2018-11-01T08:00:26.630Z,976.99
2018-11-01T08:01:26.630Z,976.96
2018-11-01T08:02:26.625Z,976.93
2018-11-01T08:03:26.635Z,976.95
2018-11-01T08:04:26.584Z,976.95
2018-11-01T08:05:26.576Z,977.00
2018-11-01T08:06:26.779Z,977.00
2018-11-01T08:07:26.635Z,977.09
2018-11-01T08:08:26.559Z,977.10
2018-11-01T08:09:26.519Z,977.10
2018-11-01T08:10:26.528Z,977.12
2018-11-01T08:11:26.513Z,977.15
2018-11-01T08:12:26.486Z,977.18
2018-11-01T08:13:26.497Z,977.21
2018-11-01T08:14:26.483Z,977.18
2018-11-01T08:15:26.473Z,977.17
2018-11-01T08:16:26.461Z,977.20
2018-11-01T08:17:26.431Z,977.23
2018-11-01T08:18:26.445Z,977.18
2018-11-01T08:19:26.488Z,977.20
2018-11-01T08:20:26.490Z,977.23
2018-11-01T08:21:26.401Z,977.20
2018-11-01T08:22:26.378Z,977.22
2018-11-01T08:23:26.364Z,977.16
2018-11-01T08:24:26.395Z,977.15
2018-11-01T08:25:26.356Z,977.13
2018-11-01T08:26:26.381Z,977.10
2018-11-01T08:27:26.334Z,977.06
2018-11-01T08:28:26.322Z,977.08
2018-11-01T08:29:26.296Z,977.05
2018-11-01T08:30:26.304Z,977.07
2018-11-01T08:31:26.279Z,977.07
2018-11-01T08:32:26.279Z,977.12
2018-11-01T08:33:26.278Z,977.10
2018-11-01T08:34:26.252Z,977.13
2018-11-01T08:35:26.258Z,977.15
2018-11-01T08:36:26.259Z,977.14
2018-11-01T08:37:26.221Z,977.13
2018-11-01T08:38:26.277Z,977.05
2018-11-01T08:39:26.279Z,977.00
2018-11-01T08:40:26.181Z,977.00
2018-11-01T08:41:26.205Z,976.93
2018-11-01T08:42:26.163Z,976.96
2018-11-01T08:43:26.176Z,976.89
2018-11-01T08:44:26.164Z,976.99
2018-11-01T08:45:26.108Z,976.88
2018-11-01T08:46:26.104Z,976.90
2018-11-01T08:47:26.133Z,976.83
2018-11-01T08:48:26.074Z,976.85
2018-11-01T08:49:26.224Z,976.78
2018-11-01T08:50:26.051Z,976.79
2018-11-01T08:51:26.051Z,976.83
2018-11-01T08:52:26.052Z,976.82
2018-11-01T08:53:26.017Z,976.85
2018-11-01T08:54:26.001Z,976.83
2018-11-01T08:55:26.010Z,976.81
2018-11-01T08:56:25.995Z,976.75
2018-11-01T08:57:25.974Z,976.70
2018-11-01T08:58:25.995Z,976.72
2018-11-01T08:59:25.960Z,976.61
2018-11-01T09:00:25.953Z,976.60
2018-11-01T09:01:25.944Z,976.62
2018-11-01T09:02:25.913Z,976.58
2018-11-01T09:03:25.902Z,976.53
2018-11-01T09:04:25.891Z,976.58
2018-11-01T09:05:25.896Z,976.57
2018-11-01T09:06:25.913Z,976.51
2018-11-01T09:07:25.876Z,976.51
2018-11-01T09:08:25.905Z,976.48
2018-11-01T09:09:25.850Z,976.45
2018-11-01T09:10:25.887Z,976.48
2018-11-01T09:11:25.844Z,976.52
2018-11-01T09:12:25.796Z,976.55
2018-11-01T09:13:25.873Z,976.54
2018-11-01T09:14:25.860Z,976.61
2018-11-01T09:15:25.812Z,976.64
2018-11-01T09:16:25.766Z,976.64
2018-11-01T09:17:25.787Z,976.67
2018-11-01T09:18:25.763Z,976.65
2018-11-01T09:19:25.836Z,976.68
2018-11-01T09:20:25.729Z,976.69
2018-11-01T09:21:25.720Z,976.70
2018-11-01T09:22:25.682Z,976.75
2018-11-01T09:23:25.671Z,976.77
2018-11-01T09:24:25.687Z,976.80
2018-11-01T09:25:25.648Z,976.78
2018-11-01T09:26:25.680Z,976.77
2018-11-01T09:27:25.645Z,976.76
2018-11-01T09:28:25.614Z,976.78
2018-11-01T09:29:25.602Z,976.67
2018-11-01T09:30:25.606Z,976.71
2018-11-01T09:31:25.592Z,976.70
2018-11-01T09:32:25.572Z,976.65
2018-11-01T09:33:25.553Z,976.68
2018-11-01T09:34:25.546Z,976.74
2018-11-01T09:35:25.580Z,976.75
2018-11-01T09:36:25.579Z,976.77
2018-11-01T09:37:25.543Z,976.78
2018-11-01T09:38:25.511Z,976.78
2018-11-01T09:39:25.490Z,976.81
2018-11-01T09:40:25.466Z,976.83
2018-11-01T09:41:25.503Z,976.88
2018-11-01T09:42:25.454Z,976.78
2018-11-01T09:43:25.444Z,976.84
2018-11-01T09:44:25.431Z,976.72
2018-11-01T09:45:25.432Z,976.78
2018-11-01T09:46:25.651Z,976.64
2018-11-01T09:47:25.802Z,976.69
2018-11-01T09:48:25.394Z,976.64
2018-11-01T09:49:25.375Z,976.60
2018-11-01T09:50:25.375Z,976.59
2018-11-01T09:51:25.393Z,976.52
2018-11-01T09:52:25.351Z,976.50
2018-11-01T09:53:25.325Z,976.57
2018-11-01T09:54:25.329Z,976.49
2018-11-01T09:55:25.374Z,976.51
2018-11-01T09:56:25.456Z,976.51
2018-11-01T09:57:25.309Z,976.53
2018-11-01T09:58:25.274Z,976.52
2018-11-01T09:59:25.269Z,976.51
2018-11-01T10:00:25.242Z,976.53
2018-11-01T10:01:25.230Z,976.52
2018-11-01T10:02:25.279Z,976.46
2018-11-01T10:03:25.212Z,976.50
2018-11-01T10:04:25.224Z,976.51
2018-11-01T10:05:25.188Z,976.52
2018-11-01T10:06:25.177Z,976.54
2018-11-01T10:07:25.178Z,976.51
2018-11-01T10:08:25.154Z,976.51
2018-11-01T10:09:25.145Z,976.49
2018-11-01T10:10:25.132Z,976.52
2018-11-01T10:11:25.120Z,976.52
2018-11-01T10:12:25.117Z,976.52
2018-11-01T10:13:25.109Z,976.51
2018-11-01T10:14:25.102Z,976.45
2018-11-01T10:15:25.250Z,976.48
2018-11-01T10:16:25.188Z,976.45
2018-11-01T10:17:25.386Z,976.46
2018-11-01T10:18:25.508Z,976.41
2018-11-01T10:19:25.052Z,976.46
2018-11-01T10:20:25.031Z,976.41
2018-11-01T10:21:25.049Z,976.39
2018-11-01T10:22:25.087Z,976.47
2018-11-01T10:23:24.978Z,976.46
2018-11-01T10:24:24.968Z,976.41
2018-11-01T10:25:25.071Z,976.41
2018-11-01T10:26:24.946Z,976.35
2018-11-01T10:27:25.017Z,976.34
2018-11-01T10:28:24.972Z,976.35
2018-11-01T10:29:24.971Z,976.38
2018-11-01T10:30:24.904Z,976.35
2018-11-01T10:31:24.893Z,976.37
2018-11-01T10:32:24.886Z,976.34
2018-11-01T10:33:24.919Z,976.28
2018-11-01T10:34:24.901Z,976.29
2018-11-01T10:35:24.839Z,976.24
2018-11-01T10:36:24.865Z,976.21
2018-11-01T10:37:24.887Z,976.23
2018-11-01T10:38:24.814Z,976.17
2018-11-01T10:39:24.829Z,976.18
2018-11-01T10:40:24.802Z,976.21
2018-11-01T10:41:24.787Z,976.20
2018-11-01T10:42:24.772Z,976.21
2018-11-01T10:43:24.759Z,976.20
2018-11-01T10:44:24.788Z,976.22
2018-11-01T10:45:24.757Z,976.20
2018-11-01T10:46:24.781Z,976.18
2018-11-01T10:47:24.837Z,976.22
2018-11-01T10:48:24.708Z,976.24
2018-11-01T10:49:24.700Z,976.20
2018-11-01T10:50:24.688Z,976.14
2018-11-01T10:51:24.657Z,976.10
2018-11-01T10:52:24.658Z,976.17
2018-11-01T10:53:24.634Z,976.15
2018-11-01T10:54:24.769Z,976.22
2018-11-01T10:55:24.659Z,976.22
2018-11-01T10:56:24.599Z,976.17
2018-11-01T10:57:24.657Z,976.17
2018-11-01T10:58:24.597Z,976.18
2018-11-01T10:59:24.565Z,976.15
2018-11-01T11:00:24.628Z,976.14
2018-11-01T11:01:24.559Z,976.19
2018-11-01T11:02:24.568Z,976.19
2018-11-01T11:03:24.520Z,976.18
2018-11-01T11:04:24.509Z,976.12
2018-11-01T11:05:24.500Z,976.15
2018-11-01T11:06:24.553Z,976.12
2018-11-01T11:07:24.487Z,976.11
2018-11-01T11:08:24.480Z,976.08
2018-11-01T11:09:24.507Z,976.07
2018-11-01T11:10:24.441Z,976.10
2018-11-01T11:11:24.429Z,976.03
2018-11-01T11:12:24.506Z,976.01
2018-11-01T11:13:24.431Z,976.03
2018-11-01T11:14:24.449Z,976.03
2018-11-01T11:15:24.432Z,976.05
2018-11-01T11:16:24.409Z,976.03
2018-11-01T11:17:24.416Z,976.02
2018-11-01T11:18:24.367Z,975.98
2018-11-01T11:19:24.370Z,975.96
2018-11-01T11:20:24.524Z,975.97
2018-11-01T11:21:24.315Z,975.90
2018-11-01T11:22:24.348Z,975.93
2018-11-01T11:23:24.309Z,975.92
2018-11-01T11:24:24.297Z,975.98
2018-11-01T11:25:24.266Z,975.90
2018-11-01T11:26:24.278Z,975.90
2018-11-01T11:27:24.315Z,975.91
2018-11-01T11:28:24.221Z,975.90
2018-11-01T11:29:24.240Z,975.85
2018-11-01T11:30:24.447Z,975.79
2018-11-01T11:31:24.200Z,975.77
2018-11-01T11:32:24.218Z,975.73
2018-11-01T11:33:24.186Z,975.73
2018-11-01T11:34:24.179Z,975.65
2018-11-01T11:35:24.213Z,975.72
2018-11-01T11:36:24.136Z,975.63
2018-11-01T11:37:24.212Z,975.57
2018-11-01T11:38:24.138Z,975.53
2018-11-01T11:39:24.162Z,975.49
2018-11-01T11:40:24.136Z,975.44
2018-11-01T11:41:24.144Z,975.47
2018-11-01T11:42:24.085Z,975.45
2018-11-01T11:43:24.062Z,975.40
2018-11-01T11:44:24.049Z,975.36
2018-11-01T11:45:24.039Z,975.27
2018-11-01T11:46:24.041Z,975.26
2018-11-01T11:47:24.080Z,975.22
2018-11-01T11:48:24.116Z,975.26
2018-11-01T11:49:24.008Z,975.29
2018-11-01T11:50:23.983Z,975.23
2018-11-01T11:51:24.012Z,975.18
2018-11-01T11:52:23.982Z,975.07
2018-11-01T11:53:23.943Z,974.99
2018-11-01T11:54:23.935Z,974.98
2018-11-01T11:55:23.924Z,975.06
2018-11-01T11:56:23.914Z,975.06
2018-11-01T11:57:23.989Z,975.03
2018-11-01T11:58:23.887Z,975.04
2018-11-01T11:59:23.909Z,974.98
2018-11-01T12:00:23.882Z,975.05
2018-11-01T12:01:23.884Z,975.03
2018-11-01T12:02:24.000Z,975.01
2018-11-01T12:03:23.845Z,975.00
2018-11-01T12:04:23.824Z,975.03
2018-11-01T12:05:23.859Z,975.06
2018-11-01T12:06:23.941Z,975.08
2018-11-01T12:07:23.804Z,975.04
2018-11-01T12:08:23.836Z,975.03
2018-11-01T12:09:23.781Z,975.02
2018-11-01T12:10:23.757Z,975.04
2018-11-01T12:11:23.742Z,974.99
2018-11-01T12:12:23.737Z,975.00
2018-11-01T12:13:23.734Z,975.02
2018-11-01T12:14:23.705Z,975.01
2018-11-01T12:15:23.697Z,975.01
2018-11-01T12:16:23.701Z,975.01
2018-11-01T12:17:23.721Z,975.03
2018-11-01T12:18:23.686Z,975.01
2018-11-01T12:19:23.652Z,975.01
2018-11-01T12:20:23.708Z,975.04
2018-11-01T12:21:23.629Z,975.03
2018-11-01T12:22:23.679Z,975.01
2018-11-01T12:23:23.617Z,974.93
2018-11-01T12:24:23.596Z,974.93
2018-11-01T12:25:23.627Z,974.92
2018-11-01T12:26:23.601Z,974.95
2018-11-01T12:27:23.612Z,975.01
2018-11-01T12:28:23.630Z,975.04
2018-11-01T12:29:23.555Z,975.05
2018-11-01T12:30:23.732Z,975.01
2018-11-01T12:31:23.516Z,975.01
2018-11-01T12:32:23.504Z,974.97
2018-11-01T12:33:23.524Z,974.90
2018-11-01T12:34:23.500Z,974.91
2018-11-01T12:35:23.506Z,974.89
2018-11-01T12:36:23.460Z,974.85
2018-11-01T12:37:23.448Z,974.83
2018-11-01T12:38:23.519Z,974.83
2018-11-01T12:39:23.424Z,974.84
2018-11-01T12:40:23.453Z,974.85
2018-11-01T12:41:23.413Z,974.83
2018-11-01T12:42:23.443Z,974.78
2018-11-01T12:43:23.410Z,974.79
2018-11-01T12:44:23.383Z,974.74
2018-11-01T12:45:23.429Z,974.63
2018-11-01T12:46:23.368Z,974.64
2018-11-01T12:47:23.331Z,974.61
2018-11-01T12:48:23.325Z,974.61
2018-11-01T12:49:23.319Z,974.59
2018-11-01T12:50:23.444Z,974.51
2018-11-01T12:51:23.288Z,974.49
2018-11-01T12:52:23.287Z,974.52
2018-11-01T12:53:23.272Z,974.53
2018-11-01T12:54:23.270Z,974.57
2018-11-01T12:55:23.241Z,974.65
2018-11-01T12:56:23.337Z,974.76
2018-11-01T12:57:23.231Z,974.75
2018-11-01T12:58:23.256Z,974.83
2018-11-01T12:59:23.224Z,974.91
2018-11-01T13:00:23.201Z,975.02
2018-11-01T13:01:23.176Z,975.03
2018-11-01T13:02:23.202Z,974.97
2018-11-01T13:03:23.176Z,974.97
2018-11-01T13:04:23.152Z,974.88
2018-11-01T13:05:23.142Z,974.86
2018-11-01T13:06:23.157Z,974.80
2018-11-01T13:07:23.118Z,974.77
2018-11-01T13:08:23.104Z,974.69
2018-11-01T13:09:23.079Z,974.68
2018-11-01T13:10:23.103Z,974.67
2018-11-01T13:11:23.095Z,974.60
2018-11-01T13:12:23.045Z,974.55
2018-11-01T13:13:23.050Z,974.54
2018-11-01T13:14:23.079Z,974.52
2018-11-01T13:15:23.064Z,974.59
2018-11-01T13:16:23.026Z,974.69
2018-11-01T13:17:23.027Z,974.69
2018-11-01T13:18:23.008Z,974.74
2018-11-01T13:19:22.981Z,974.67
2018-11-01T13:20:22.957Z,974.65
2018-11-01T13:21:22.947Z,974.65
2018-11-01T13:22:22.922Z,974.65
2018-11-01T13:23:22.935Z,974.70
2018-11-01T13:24:22.908Z,974.73
2018-11-01T13:25:22.904Z,974.77
2018-11-01T13:26:22.889Z,974.73
2018-11-01T13:27:22.894Z,974.68
2018-11-01T13:28:22.887Z,974.69
2018-11-01T13:29:23.014Z,974.68
2018-11-01T13:30:22.904Z,974.61
2018-11-01T13:31:22.829Z,974.67
2018-11-01T13:32:22.823Z,974.68
2018-11-01T13:33:22.838Z,974.63
2018-11-01T13:34:22.798Z,974.65
2018-11-01T13:35:22.877Z,974.55
2018-11-01T13:36:22.777Z,974.57
2018-11-01T13:37:22.788Z,974.57
2018-11-01T13:38:22.813Z,974.52
2018-11-01T13:39:22.801Z,974.53
2018-11-01T13:40:23.113Z,974.56
2018-11-01T13:41:22.920Z,974.54
2018-11-01T13:42:22.715Z,974.59
2018-11-01T13:43:22.707Z,974.58
2018-11-01T13:44:22.701Z,974.62
2018-11-01T13:45:22.673Z,974.59
2018-11-01T13:46:22.709Z,974.52
2018-11-01T13:47:22.944Z,974.62
2018-11-01T13:48:22.828Z,974.63
2018-11-01T13:49:22.629Z,974.58
2018-11-01T13:50:22.656Z,974.62
2018-11-01T13:51:22.622Z,974.65
2018-11-01T13:52:22.590Z,974.61
2018-11-01T13:53:22.590Z,974.57
2018-11-01T13:54:22.574Z,974.60
2018-11-01T13:55:22.555Z,974.53
2018-11-01T13:56:22.599Z,974.53
2018-11-01T13:57:22.537Z,974.48
2018-11-01T13:58:22.541Z,974.42
2018-11-01T13:59:22.514Z,974.47
2018-11-01T14:00:22.508Z,974.50
2018-11-01T14:01:22.518Z,974.53
2018-11-01T14:02:22.495Z,974.49
2018-11-01T14:03:22.480Z,974.52
2018-11-01T14:04:22.458Z,974.59
2018-11-01T14:05:22.441Z,974.53
2018-11-01T14:06:22.541Z,974.62
2018-11-01T14:07:22.427Z,974.65
2018-11-01T14:08:22.440Z,974.60
2018-11-01T14:09:22.405Z,974.58
2018-11-01T14:10:22.391Z,974.58
2018-11-01T14:11:22.378Z,974.59
2018-11-01T14:12:22.367Z,974.69
2018-11-01T14:13:22.542Z,974.60
2018-11-01T14:14:22.845Z,974.64
2018-11-01T14:15:22.727Z,974.70
2018-11-01T14:16:22.370Z,974.72
2018-11-01T14:17:22.311Z,974.63
2018-11-01T14:18:22.315Z,974.67
2018-11-01T14:19:22.328Z,974.64
2018-11-01T14:20:22.276Z,974.63
2018-11-01T14:21:22.336Z,974.68
2018-11-01T14:22:22.266Z,974.58
2018-11-01T14:23:22.306Z,974.63
2018-11-01T14:24:22.243Z,974.62
2018-11-01T14:25:22.241Z,974.63
2018-11-01T14:26:22.208Z,974.63
2018-11-01T14:27:22.219Z,974.64
2018-11-01T14:28:22.201Z,974.55
2018-11-01T14:29:22.238Z,974.54
2018-11-01T14:30:22.162Z,974.57
2018-11-01T14:31:22.156Z,974.58
2018-11-01T14:32:22.139Z,974.64
2018-11-01T14:33:22.144Z,974.60
2018-11-01T14:34:22.149Z,974.60
2018-11-01T14:35:22.106Z,974.62
2018-11-01T14:36:22.111Z,974.63
2018-11-01T14:37:22.175Z,974.66
2018-11-01T14:38:22.074Z,974.65
2018-11-01T14:39:22.069Z,974.72
2018-11-01T14:40:22.058Z,974.84
2018-11-01T14:41:22.069Z,974.77
2018-11-01T14:42:22.062Z,974.80
2018-11-01T14:43:23.254Z,974.84
2018-11-01T14:44:22.074Z,974.88
2018-11-01T14:45:22.093Z,974.88
2018-11-01T14:46:21.980Z,974.90
2018-11-01T14:47:21.988Z,974.96
2018-11-01T14:48:21.958Z,974.90
2018-11-01T14:49:21.996Z,974.91
2018-11-01T14:50:21.943Z,974.87
2018-11-01T14:51:21.928Z,974.86
2018-11-01T14:52:22.278Z,974.84
2018-11-01T14:53:22.608Z,974.85
2018-11-01T14:54:22.473Z,974.87
2018-11-01T14:55:22.875Z,974.89
2018-11-01T14:56:23.661Z,974.89
2018-11-01T14:57:23.508Z,974.89
2018-11-01T14:58:23.056Z,974.89
2018-11-01T14:59:23.359Z,974.88
2018-11-01T15:00:21.852Z,974.92
2018-11-01T15:01:21.812Z,974.92
2018-11-01T15:02:21.815Z,974.86
2018-11-01T15:03:21.800Z,974.87
2018-11-01T15:04:21.842Z,974.81
2018-11-01T15:05:21.764Z,974.85
2018-11-01T15:06:21.817Z,974.88
2018-11-01T15:07:21.770Z,974.88
2018-11-01T15:08:21.748Z,974.87
2018-11-01T15:09:21.736Z,974.87
2018-11-01T15:10:21.725Z,974.92
2018-11-01T15:11:21.717Z,974.92
2018-11-01T15:12:21.685Z,975.00
2018-11-01T15:13:21.750Z,975.02
2018-11-01T15:14:21.688Z,975.01
2018-11-01T15:15:21.655Z,975.08
2018-11-01T15:16:21.643Z,975.13
2018-11-01T15:17:21.653Z,975.15
2018-11-01T15:18:21.640Z,975.15
2018-11-01T15:19:21.779Z,975.15
2018-11-01T15:20:21.607Z,975.17
2018-11-01T15:21:21.583Z,975.15
2018-11-01T15:22:21.567Z,975.20
2018-11-01T15:23:21.565Z,975.21
2018-11-01T15:24:21.561Z,975.24
2018-11-01T15:25:21.553Z,975.24
2018-11-01T15:26:21.610Z,975.31
2018-11-01T15:27:21.530Z,975.18
2018-11-01T15:28:21.499Z,975.22
2018-11-01T15:29:21.504Z,975.18
2018-11-01T15:30:21.477Z,975.21
2018-11-01T15:31:21.470Z,975.18
2018-11-01T15:32:21.483Z,975.23
2018-11-01T15:33:21.507Z,975.20
2018-11-01T15:34:21.452Z,975.24
2018-11-01T15:35:21.419Z,975.31
2018-11-01T15:36:21.409Z,975.24
2018-11-01T15:37:21.439Z,975.22
2018-11-01T15:38:21.387Z,975.23
2018-11-01T15:39:21.414Z,975.29
2018-11-01T15:40:21.383Z,975.23
2018-11-01T15:41:21.355Z,975.30
2018-11-01T15:42:21.344Z,975.25
2018-11-01T15:43:21.333Z,975.29
2018-11-01T15:44:21.337Z,975.28
2018-11-01T15:45:21.374Z,975.35
2018-11-01T15:46:21.323Z,975.33
2018-11-01T15:47:21.335Z,975.32
2018-11-01T15:48:21.377Z,975.30
2018-11-01T15:49:21.321Z,975.36
2018-11-01T15:50:21.289Z,975.42
2018-11-01T15:51:21.246Z,975.41
2018-11-01T15:52:21.243Z,975.43
2018-11-01T15:53:21.218Z,975.47
2018-11-01T15:54:21.216Z,975.50
2018-11-01T15:55:21.213Z,975.57
2018-11-01T15:56:21.212Z,975.58
2018-11-01T15:57:21.227Z,975.59
2018-11-01T15:58:21.180Z,975.66
2018-11-01T15:59:21.191Z,975.66
2018-11-01T16:00:21.179Z,975.74
2018-11-01T16:01:21.140Z,975.76
2018-11-01T16:02:21.201Z,975.79
2018-11-01T16:03:21.139Z,975.86
2018-11-01T16:04:21.134Z,975.89
2018-11-01T16:05:21.083Z,975.92
2018-11-01T16:06:21.092Z,975.97
2018-11-01T16:07:21.063Z,975.99
2018-11-01T16:08:21.049Z,975.98
2018-11-01T16:09:21.049Z,975.98
2018-11-01T16:10:21.030Z,976.00
2018-11-01T16:11:21.026Z,976.03
2018-11-01T16:12:20.999Z,976.02
2018-11-01T16:13:21.009Z,976.04
2018-11-01T16:14:21.019Z,976.11
2018-11-01T16:15:20.965Z,976.10
2018-11-01T16:16:21.005Z,976.13
2018-11-01T16:17:21.003Z,976.10
2018-11-01T16:18:20.947Z,976.11
2018-11-01T16:19:20.942Z,976.12
2018-11-01T16:20:20.996Z,976.11
2018-11-01T16:21:20.944Z,976.16
2018-11-01T16:22:20.917Z,976.18
2018-11-01T16:23:20.944Z,976.26
2018-11-01T16:24:20.904Z,976.21
2018-11-01T16:25:20.872Z,976.27
2018-11-01T16:26:20.865Z,976.30
2018-11-01T16:27:20.991Z,976.31
2018-11-01T16:28:20.882Z,976.27
2018-11-01T16:29:20.831Z,976.26
2018-11-01T16:30:20.854Z,976.30
2018-11-01T16:31:20.824Z,976.35
2018-11-01T16:32:20.781Z,976.32
2018-11-01T16:33:20.787Z,976.34
2018-11-01T16:34:20.773Z,976.38
2018-11-01T16:35:20.755Z,976.35
2018-11-01T16:36:20.770Z,976.38
2018-11-01T16:37:20.814Z,976.37
2018-11-01T16:38:20.746Z,976.40
2018-11-01T16:39:20.702Z,976.35
2018-11-01T16:40:20.702Z,976.39
2018-11-01T16:41:20.678Z,976.42
2018-11-01T16:42:20.794Z,976.42
2018-11-01T16:43:20.656Z,976.43
2018-11-01T16:44:20.660Z,976.50
2018-11-01T16:45:20.759Z,976.47
2018-11-01T16:46:20.635Z,976.49
2018-11-01T16:47:20.610Z,976.51
2018-11-01T16:48:20.598Z,976.54
2018-11-01T16:49:20.607Z,976.57
2018-11-01T16:50:20.588Z,976.62
2018-11-01T16:51:20.561Z,976.65
2018-11-01T16:52:20.553Z,976.69
2018-11-01T16:53:20.542Z,976.68
2018-11-01T16:54:20.535Z,976.77
2018-11-01T16:55:20.584Z,976.76
2018-11-01T16:56:20.525Z,976.77
2018-11-01T16:57:20.497Z,976.81
2018-11-01T16:58:20.486Z,976.81
2018-11-01T16:59:20.495Z,976.79
2018-11-01T17:00:20.510Z,976.81
2018-11-01T17:01:20.450Z,976.77
2018-11-01T17:02:20.439Z,976.85
2018-11-01T17:03:20.436Z,976.88
2018-11-01T17:04:20.429Z,976.91
2018-11-01T17:05:20.449Z,976.90
2018-11-01T17:06:20.394Z,976.93
2018-11-01T17:07:20.403Z,976.91
2018-11-01T17:08:20.437Z,976.92
2018-11-01T17:09:20.385Z,976.91
2018-11-01T17:10:20.377Z,976.97
2018-11-01T17:11:20.337Z,976.94
2018-11-01T17:12:20.327Z,976.97
2018-11-01T17:13:20.315Z,977.02
2018-11-01T17:14:20.347Z,977.07
2018-11-01T17:15:20.336Z,977.10
2018-11-01T17:16:20.282Z,977.07
2018-11-01T17:17:20.269Z,977.08
2018-11-01T17:18:20.270Z,977.06
2018-11-01T17:19:20.271Z,977.05
2018-11-01T17:20:20.263Z,977.13
2018-11-01T17:21:20.224Z,977.17
2018-11-01T17:22:20.232Z,977.22
2018-11-01T17:23:20.228Z,977.17
2018-11-01T17:24:20.194Z,977.23
2018-11-01T17:25:20.247Z,977.24
2018-11-01T17:26:20.204Z,977.29
2018-11-01T17:27:20.148Z,977.30
2018-11-01T17:28:20.148Z,977.34